sensor_id;sensor_type;location;lat;lon;timestamp;P1;durP1;ratioP1;P2;durP2;ratioP2
54805;SDS011;62866;55.776;37.496;2023-03-23T00:01:53;3.40;;;1.17;;
54805;SDS011;62866;55.776;37.496;2023-03-23T00:04:19;3.05;;;1.55;;
54805;SDS011;62866;55.776;37.496;2023-03-23T00:06:45;3.97;;;1.80;;
54805;SDS011;62866;55.776;37.496;2023-03-23T00:09:14;2.83;;;1.40;;
54805;SDS011;62866;55.776;37.496;2023-03-23T00:11:41;3.33;;;1.70;;
54805;SDS011;62866;55.776;37.496;2023-03-23T00:14:08;3.42;;;1.50;;
54805;SDS011;62866;55.776;37.496;2023-03-23T00:16:38;3.40;;;1.63;;
54805;SDS011;62866;55.776;37.496;2023-03-23T00:19:10;1.63;;;1.10;;
54805;SDS011;62866;55.776;37.496;2023-03-23T00:21:40;2.60;;;1.67;;
54805;SDS011;62866;55.776;37.496;2023-03-23T00:26:35;2.25;;;1.27;;
54805;SDS011;62866;55.776;37.496;2023-03-23T00:29:05;2.30;;;1.60;;
54805;SDS011;62866;55.776;37.496;2023-03-23T00:31:33;2.05;;;1.55;;
54805;SDS011;62866;55.776;37.496;2023-03-23T00:34:00;3.10;;;1.60;;
54805;SDS011;62866;55.776;37.496;2023-03-23T00:36:28;1.90;;;1.35;;
54805;SDS011;62866;55.776;37.496;2023-03-23T00:39:03;3.55;;;1.67;;
54805;SDS011;62866;55.776;37.496;2023-03-23T00:41:29;2.30;;;1.40;;
54805;SDS011;62866;55.776;37.496;2023-03-23T00:43:56;2.33;;;1.60;;
54805;SDS011;62866;55.776;37.496;2023-03-23T00:46:23;1.90;;;1.35;;
54805;SDS011;62866;55.776;37.496;2023-03-23T00:48:49;2.38;;;1.63;;
54805;SDS011;62866;55.776;37.496;2023-03-23T00:51:19;1.75;;;1.00;;
54805;SDS011;62866;55.776;37.496;2023-03-23T00:53:45;2.22;;;0.88;;
54805;SDS011;62866;55.776;37.496;2023-03-23T00:56:11;2.75;;;1.52;;
54805;SDS011;62866;55.776;37.496;2023-03-23T00:58:38;1.90;;;1.10;;
54805;SDS011;62866;55.776;37.496;2023-03-23T01:01:05;4.55;;;2.03;;
54805;SDS011;62866;55.776;37.496;2023-03-23T01:03:30;3.20;;;1.40;;
54805;SDS011;62866;55.776;37.496;2023-03-23T01:05:56;2.28;;;1.17;;
54805;SDS011;62866;55.776;37.496;2023-03-23T01:08:22;3.28;;;1.65;;
54805;SDS011;62866;55.776;37.496;2023-03-23T01:10:49;2.65;;;1.73;;
54805;SDS011;62866;55.776;37.496;2023-03-23T01:13:15;3.13;;;1.67;;
54805;SDS011;62866;55.776;37.496;2023-03-23T01:15:42;2.42;;;1.45;;
54805;SDS011;62866;55.776;37.496;2023-03-23T01:18:08;3.28;;;1.55;;
54805;SDS011;62866;55.776;37.496;2023-03-23T01:20:35;2.78;;;1.85;;
54805;SDS011;62866;55.776;37.496;2023-03-23T01:23:02;2.95;;;1.95;;
54805;SDS011;62866;55.776;37.496;2023-03-23T01:25:28;1.55;;;1.00;;
54805;SDS011;62866;55.776;37.496;2023-03-23T01:27:56;3.13;;;1.75;;
54805;SDS011;62866;55.776;37.496;2023-03-23T01:30:22;3.38;;;2.00;;
54805;SDS011;62866;55.776;37.496;2023-03-23T01:32:48;2.63;;;1.60;;
54805;SDS011;62866;55.776;37.496;2023-03-23T01:35:15;2.03;;;1.45;;
54805;SDS011;62866;55.776;37.496;2023-03-23T01:37:41;1.77;;;1.30;;
54805;SDS011;62866;55.776;37.496;2023-03-23T01:40:07;1.90;;;1.08;;
54805;SDS011;62866;55.776;37.496;2023-03-23T01:42:34;3.88;;;1.92;;
54805;SDS011;62866;55.776;37.496;2023-03-23T01:45:21;3.25;;;1.55;;
54805;SDS011;62866;55.776;37.496;2023-03-23T01:47:54;2.60;;;1.52;;
54805;SDS011;62866;55.776;37.496;2023-03-23T01:50:23;1.52;;;0.70;;
54805;SDS011;62866;55.776;37.496;2023-03-23T01:52:51;4.25;;;2.10;;
54805;SDS011;62866;55.776;37.496;2023-03-23T01:55:19;3.17;;;1.95;;
54805;SDS011;62866;55.776;37.496;2023-03-23T01:57:45;2.47;;;1.70;;
54805;SDS011;62866;55.776;37.496;2023-03-23T02:00:12;2.17;;;1.40;;
54805;SDS011;62866;55.776;37.496;2023-03-23T02:02:43;3.30;;;1.60;;
54805;SDS011;62866;55.776;37.496;2023-03-23T02:05:13;1.73;;;1.30;;
54805;SDS011;62866;55.776;37.496;2023-03-23T02:07:42;2.40;;;1.00;;
54805;SDS011;62866;55.776;37.496;2023-03-23T02:10:09;3.13;;;1.60;;
54805;SDS011;62866;55.776;37.496;2023-03-23T02:12:35;1.75;;;1.17;;
54805;SDS011;62866;55.776;37.496;2023-03-23T02:15:00;3.97;;;1.60;;
54805;SDS011;62866;55.776;37.496;2023-03-23T02:33:39;2.13;;;1.42;;
54805;SDS011;62866;55.776;37.496;2023-03-23T02:36:38;2.78;;;1.70;;
54805;SDS011;62866;55.776;37.496;2023-03-23T02:39:19;2.97;;;1.65;;
54805;SDS011;62866;55.776;37.496;2023-03-23T02:42:02;2.85;;;1.60;;
54805;SDS011;62866;55.776;37.496;2023-03-23T02:44:31;2.60;;;1.50;;
54805;SDS011;62866;55.776;37.496;2023-03-23T02:46:59;3.55;;;1.33;;
54805;SDS011;62866;55.776;37.496;2023-03-23T02:49:29;3.35;;;1.48;;
54805;SDS011;62866;55.776;37.496;2023-03-23T02:51:58;3.78;;;1.88;;
54805;SDS011;62866;55.776;37.496;2023-03-23T02:54:27;4.65;;;1.88;;
54805;SDS011;62866;55.776;37.496;2023-03-23T02:56:54;2.38;;;1.20;;
54805;SDS011;62866;55.776;37.496;2023-03-23T02:59:22;2.97;;;1.52;;
54805;SDS011;62866;55.776;37.496;2023-03-23T03:01:48;1.88;;;1.23;;
54805;SDS011;62866;55.776;37.496;2023-03-23T03:04:20;2.60;;;1.40;;
54805;SDS011;62866;55.776;37.496;2023-03-23T03:17:27;4.05;;;1.35;;
54805;SDS011;62866;55.776;37.496;2023-03-23T03:19:59;3.35;;;1.70;;
54805;SDS011;62866;55.776;37.496;2023-03-23T03:22:34;3.28;;;1.77;;
54805;SDS011;62866;55.776;37.496;2023-03-23T03:25:03;2.55;;;1.73;;
54805;SDS011;62866;55.776;37.496;2023-03-23T03:27:31;3.97;;;1.88;;
54805;SDS011;62866;55.776;37.496;2023-03-23T03:29:58;3.72;;;1.50;;
54805;SDS011;62866;55.776;37.496;2023-03-23T03:32:30;3.50;;;1.70;;
54805;SDS011;62866;55.776;37.496;2023-03-23T03:35:03;4.90;;;1.92;;
54805;SDS011;62866;55.776;37.496;2023-03-23T03:37:34;2.50;;;1.52;;
54805;SDS011;62866;55.776;37.496;2023-03-23T03:40:15;3.72;;;2.00;;
54805;SDS011;62866;55.776;37.496;2023-03-23T03:42:44;4.10;;;1.63;;
54805;SDS011;62866;55.776;37.496;2023-03-23T03:45:12;2.55;;;1.60;;
54805;SDS011;62866;55.776;37.496;2023-03-23T03:47:39;4.20;;;1.90;;
54805;SDS011;62866;55.776;37.496;2023-03-23T03:50:05;2.47;;;1.30;;
54805;SDS011;62866;55.776;37.496;2023-03-23T03:52:34;3.00;;;1.30;;
54805;SDS011;62866;55.776;37.496;2023-03-23T03:55:01;3.80;;;1.92;;
54805;SDS011;62866;55.776;37.496;2023-03-23T03:57:27;3.15;;;1.88;;
54805;SDS011;62866;55.776;37.496;2023-03-23T03:59:52;4.53;;;1.80;;
54805;SDS011;62866;55.776;37.496;2023-03-23T04:02:18;3.33;;;1.50;;
54805;SDS011;62866;55.776;37.496;2023-03-23T04:04:45;4.70;;;2.50;;
54805;SDS011;62866;55.776;37.496;2023-03-23T04:07:12;3.67;;;1.50;;
54805;SDS011;62866;55.776;37.496;2023-03-23T04:09:39;4.13;;;1.90;;
54805;SDS011;62866;55.776;37.496;2023-03-23T04:12:05;4.88;;;1.80;;
54805;SDS011;62866;55.776;37.496;2023-03-23T04:14:31;2.20;;;1.42;;
54805;SDS011;62866;55.776;37.496;2023-03-23T04:16:57;3.90;;;2.15;;
54805;SDS011;62866;55.776;37.496;2023-03-23T04:19:24;5.55;;;2.53;;
54805;SDS011;62866;55.776;37.496;2023-03-23T04:21:49;4.45;;;2.00;;
54805;SDS011;62866;55.776;37.496;2023-03-23T04:24:15;4.03;;;1.38;;
54805;SDS011;62866;55.776;37.496;2023-03-23T04:26:41;2.40;;;1.30;;
54805;SDS011;62866;55.776;37.496;2023-03-23T04:29:10;3.25;;;2.03;;
54805;SDS011;62866;55.776;37.496;2023-03-23T04:31:38;4.60;;;2.13;;
54805;SDS011;62866;55.776;37.496;2023-03-23T04:34:04;2.72;;;1.52;;
54805;SDS011;62866;55.776;37.496;2023-03-23T04:36:30;3.70;;;1.85;;
54805;SDS011;62866;55.776;37.496;2023-03-23T04:38:58;4.90;;;2.47;;
54805;SDS011;62866;55.776;37.496;2023-03-23T04:41:25;4.70;;;2.60;;
54805;SDS011;62866;55.776;37.496;2023-03-23T04:43:51;5.43;;;2.33;;
54805;SDS011;62866;55.776;37.496;2023-03-23T04:46:19;6.53;;;2.60;;
54805;SDS011;62866;55.776;37.496;2023-03-23T04:48:46;5.50;;;2.70;;
54805;SDS011;62866;55.776;37.496;2023-03-23T04:51:12;3.25;;;1.60;;
54805;SDS011;62866;55.776;37.496;2023-03-23T04:53:37;9.90;;;2.75;;
54805;SDS011;62866;55.776;37.496;2023-03-23T04:56:03;5.53;;;2.67;;
54805;SDS011;62866;55.776;37.496;2023-03-23T04:58:29;5.82;;;2.83;;
54805;SDS011;62866;55.776;37.496;2023-03-23T05:00:58;3.80;;;2.13;;
54805;SDS011;62866;55.776;37.496;2023-03-23T05:03:27;2.70;;;1.38;;
54805;SDS011;62866;55.776;37.496;2023-03-23T05:05:53;7.05;;;2.65;;
54805;SDS011;62866;55.776;37.496;2023-03-23T05:08:19;5.70;;;2.75;;
54805;SDS011;62866;55.776;37.496;2023-03-23T05:10:56;8.20;;;2.53;;
54805;SDS011;62866;55.776;37.496;2023-03-23T05:13:23;4.40;;;2.28;;
54805;SDS011;62866;55.776;37.496;2023-03-23T05:15:49;7.78;;;3.47;;
54805;SDS011;62866;55.776;37.496;2023-03-23T05:18:15;8.60;;;3.10;;
54805;SDS011;62866;55.776;37.496;2023-03-23T05:20:41;7.07;;;3.05;;
54805;SDS011;62866;55.776;37.496;2023-03-23T05:23:07;6.25;;;2.58;;
54805;SDS011;62866;55.776;37.496;2023-03-23T05:25:34;7.20;;;3.85;;
54805;SDS011;62866;55.776;37.496;2023-03-23T05:28:02;9.15;;;4.65;;
54805;SDS011;62866;55.776;37.496;2023-03-23T05:30:28;9.05;;;3.35;;
54805;SDS011;62866;55.776;37.496;2023-03-23T05:32:54;8.05;;;3.40;;
54805;SDS011;62866;55.776;37.496;2023-03-23T05:35:20;8.80;;;3.50;;
54805;SDS011;62866;55.776;37.496;2023-03-23T05:37:46;4.60;;;2.65;;
54805;SDS011;62866;55.776;37.496;2023-03-23T05:40:12;8.30;;;2.97;;
54805;SDS011;62866;55.776;37.496;2023-03-23T05:42:38;6.47;;;2.95;;
54805;SDS011;62866;55.776;37.496;2023-03-23T05:45:08;8.95;;;4.03;;
54805;SDS011;62866;55.776;37.496;2023-03-23T05:47:36;5.90;;;2.90;;
54805;SDS011;62866;55.776;37.496;2023-03-23T05:50:02;7.20;;;3.65;;
54805;SDS011;62866;55.776;37.496;2023-03-23T05:52:28;6.15;;;2.90;;
54805;SDS011;62866;55.776;37.496;2023-03-23T05:54:54;6.63;;;3.42;;
54805;SDS011;62866;55.776;37.496;2023-03-23T05:57:19;5.05;;;3.70;;
54805;SDS011;62866;55.776;37.496;2023-03-23T05:59:48;3.55;;;2.65;;
54805;SDS011;62866;55.776;37.496;2023-03-23T06:02:14;5.07;;;3.08;;
54805;SDS011;62866;55.776;37.496;2023-03-23T06:04:40;5.93;;;3.83;;
54805;SDS011;62866;55.776;37.496;2023-03-23T06:07:06;6.50;;;3.58;;
54805;SDS011;62866;55.776;37.496;2023-03-23T06:09:32;5.90;;;3.25;;
54805;SDS011;62866;55.776;37.496;2023-03-23T06:11:58;7.63;;;3.50;;
54805;SDS011;62866;55.776;37.496;2023-03-23T06:14:24;7.80;;;4.05;;
54805;SDS011;62866;55.776;37.496;2023-03-23T06:16:49;5.40;;;3.47;;
54805;SDS011;62866;55.776;37.496;2023-03-23T06:19:15;7.70;;;5.30;;
54805;SDS011;62866;55.776;37.496;2023-03-23T06:21:41;7.47;;;4.22;;
54805;SDS011;62866;55.776;37.496;2023-03-23T06:24:08;9.13;;;4.00;;
54805;SDS011;62866;55.776;37.496;2023-03-23T06:26:36;7.53;;;4.22;;
54805;SDS011;62866;55.776;37.496;2023-03-23T06:29:04;5.93;;;3.92;;
54805;SDS011;62866;55.776;37.496;2023-03-23T06:31:41;7.07;;;4.53;;
54805;SDS011;62866;55.776;37.496;2023-03-23T06:34:09;6.13;;;4.38;;
54805;SDS011;62866;55.776;37.496;2023-03-23T06:36:36;6.57;;;4.18;;
54805;SDS011;62866;55.776;37.496;2023-03-23T06:39:03;7.95;;;4.45;;
54805;SDS011;62866;55.776;37.496;2023-03-23T06:41:32;7.18;;;4.50;;
54805;SDS011;62866;55.776;37.496;2023-03-23T06:43:59;4.25;;;3.28;;
54805;SDS011;62866;55.776;37.496;2023-03-23T06:46:25;5.90;;;3.75;;
54805;SDS011;62866;55.776;37.496;2023-03-23T06:48:52;6.10;;;3.88;;
54805;SDS011;62866;55.776;37.496;2023-03-23T06:51:18;8.13;;;3.83;;
54805;SDS011;62866;55.776;37.496;2023-03-23T06:53:43;7.25;;;3.63;;
54805;SDS011;62866;55.776;37.496;2023-03-23T06:56:09;7.90;;;4.55;;
54805;SDS011;62866;55.776;37.496;2023-03-23T06:58:36;6.30;;;5.13;;
54805;SDS011;62866;55.776;37.496;2023-03-23T07:01:02;7.15;;;4.53;;
54805;SDS011;62866;55.776;37.496;2023-03-23T07:03:29;5.88;;;4.35;;
54805;SDS011;62866;55.776;37.496;2023-03-23T07:05:56;4.80;;;3.78;;
54805;SDS011;62866;55.776;37.496;2023-03-23T07:08:21;6.28;;;4.15;;
54805;SDS011;62866;55.776;37.496;2023-03-23T07:10:51;6.63;;;3.58;;
54805;SDS011;62866;55.776;37.496;2023-03-23T07:13:17;4.40;;;3.88;;
54805;SDS011;62866;55.776;37.496;2023-03-23T07:15:43;6.35;;;3.95;;
54805;SDS011;62866;55.776;37.496;2023-03-23T07:18:09;6.72;;;4.28;;
54805;SDS011;62866;55.776;37.496;2023-03-23T07:20:35;5.03;;;3.88;;
54805;SDS011;62866;55.776;37.496;2023-03-23T07:23:01;7.55;;;4.07;;
54805;SDS011;62866;55.776;37.496;2023-03-23T07:25:30;5.07;;;3.72;;
54805;SDS011;62866;55.776;37.496;2023-03-23T07:27:57;9.32;;;4.18;;
54805;SDS011;62866;55.776;37.496;2023-03-23T07:30:24;5.88;;;3.63;;
54805;SDS011;62866;55.776;37.496;2023-03-23T07:32:51;6.60;;;3.38;;
54805;SDS011;62866;55.776;37.496;2023-03-23T07:35:16;8.02;;;4.28;;
54805;SDS011;62866;55.776;37.496;2023-03-23T07:37:42;5.10;;;3.90;;
54805;SDS011;62866;55.776;37.496;2023-03-23T07:40:08;6.40;;;3.65;;
54805;SDS011;62866;55.776;37.496;2023-03-23T07:42:40;7.32;;;4.95;;
54805;SDS011;62866;55.776;37.496;2023-03-23T07:45:13;6.07;;;3.45;;
54805;SDS011;62866;55.776;37.496;2023-03-23T07:47:39;6.03;;;3.78;;
54805;SDS011;62866;55.776;37.496;2023-03-23T07:50:05;8.60;;;4.22;;
54805;SDS011;62866;55.776;37.496;2023-03-23T07:52:32;5.55;;;3.65;;
54805;SDS011;62866;55.776;37.496;2023-03-23T07:54:59;6.72;;;3.60;;
54805;SDS011;62866;55.776;37.496;2023-03-23T07:57:27;8.98;;;3.47;;
54805;SDS011;62866;55.776;37.496;2023-03-23T07:59:53;5.28;;;3.70;;
54805;SDS011;62866;55.776;37.496;2023-03-23T08:02:18;5.50;;;3.90;;
54805;SDS011;62866;55.776;37.496;2023-03-23T08:04:44;5.15;;;3.42;;
54805;SDS011;62866;55.776;37.496;2023-03-23T08:07:10;6.80;;;3.33;;
54805;SDS011;62866;55.776;37.496;2023-03-23T08:09:37;7.50;;;4.00;;
54805;SDS011;62866;55.776;37.496;2023-03-23T08:12:04;4.47;;;3.08;;
54805;SDS011;62866;55.776;37.496;2023-03-23T08:14:30;5.00;;;3.95;;
54805;SDS011;62866;55.776;37.496;2023-03-23T08:16:55;6.82;;;3.92;;
54805;SDS011;62866;55.776;37.496;2023-03-23T08:19:22;5.18;;;3.58;;
54805;SDS011;62866;55.776;37.496;2023-03-23T08:21:48;3.35;;;2.85;;
54805;SDS011;62866;55.776;37.496;2023-03-23T08:24:14;4.20;;;3.20;;
54805;SDS011;62866;55.776;37.496;2023-03-23T08:26:41;4.55;;;3.65;;
54805;SDS011;62866;55.776;37.496;2023-03-23T08:29:06;4.78;;;4.25;;
54805;SDS011;62866;55.776;37.496;2023-03-23T08:31:33;3.65;;;3.35;;
54805;SDS011;62866;55.776;37.496;2023-03-23T08:34:00;5.95;;;3.53;;
54805;SDS011;62866;55.776;37.496;2023-03-23T08:36:26;4.95;;;3.63;;
54805;SDS011;62866;55.776;37.496;2023-03-23T08:38:53;5.70;;;3.95;;
54805;SDS011;62866;55.776;37.496;2023-03-23T08:41:19;5.97;;;3.67;;
54805;SDS011;62866;55.776;37.496;2023-03-23T08:43:45;7.15;;;4.15;;
54805;SDS011;62866;55.776;37.496;2023-03-23T08:46:11;4.95;;;3.65;;
54805;SDS011;62866;55.776;37.496;2023-03-23T08:48:37;5.72;;;3.88;;
54805;SDS011;62866;55.776;37.496;2023-03-23T08:51:04;4.10;;;3.08;;
54805;SDS011;62866;55.776;37.496;2023-03-23T08:53:30;6.68;;;4.18;;
54805;SDS011;62866;55.776;37.496;2023-03-23T08:56:02;4.25;;;3.17;;
54805;SDS011;62866;55.776;37.496;2023-03-23T08:58:37;3.97;;;3.28;;
54805;SDS011;62866;55.776;37.496;2023-03-23T09:01:04;4.95;;;3.35;;
54805;SDS011;62866;55.776;37.496;2023-03-23T09:03:31;5.25;;;3.58;;
54805;SDS011;62866;55.776;37.496;2023-03-23T09:05:59;6.18;;;4.85;;
54805;SDS011;62866;55.776;37.496;2023-03-23T09:08:26;3.78;;;3.28;;
54805;SDS011;62866;55.776;37.496;2023-03-23T09:10:54;4.57;;;2.78;;
54805;SDS011;62866;55.776;37.496;2023-03-23T09:13:23;5.05;;;3.80;;
54805;SDS011;62866;55.776;37.496;2023-03-23T09:15:49;5.18;;;3.70;;
54805;SDS011;62866;55.776;37.496;2023-03-23T09:18:15;3.83;;;3.05;;
54805;SDS011;62866;55.776;37.496;2023-03-23T09:20:42;4.13;;;3.20;;
54805;SDS011;62866;55.776;37.496;2023-03-23T09:23:08;5.32;;;3.42;;
54805;SDS011;62866;55.776;37.496;2023-03-23T09:25:34;5.50;;;3.45;;
54805;SDS011;62866;55.776;37.496;2023-03-23T09:28:00;6.45;;;3.55;;
54805;SDS011;62866;55.776;37.496;2023-03-23T09:30:30;4.38;;;3.05;;
54805;SDS011;62866;55.776;37.496;2023-03-23T09:32:59;5.15;;;2.97;;
54805;SDS011;62866;55.776;37.496;2023-03-23T09:35:26;7.05;;;3.65;;
54805;SDS011;62866;55.776;37.496;2023-03-23T09:37:53;4.40;;;3.00;;
54805;SDS011;62866;55.776;37.496;2023-03-23T09:42:53;4.97;;;2.75;;
54805;SDS011;62866;55.776;37.496;2023-03-23T09:45:41;5.03;;;3.03;;
54805;SDS011;62866;55.776;37.496;2023-03-23T09:53:42;5.78;;;3.08;;
54805;SDS011;62866;55.776;37.496;2023-03-23T09:56:12;7.20;;;2.88;;
54805;SDS011;62866;55.776;37.496;2023-03-23T09:59:01;5.53;;;3.40;;
54805;SDS011;62866;55.776;37.496;2023-03-23T10:01:39;4.50;;;2.15;;
54805;SDS011;62866;55.776;37.496;2023-03-23T10:04:27;4.40;;;2.75;;
54805;SDS011;62866;55.776;37.496;2023-03-23T10:07:10;5.38;;;2.92;;
54805;SDS011;62866;55.776;37.496;2023-03-23T10:09:39;4.70;;;2.35;;
54805;SDS011;62866;55.776;37.496;2023-03-23T10:17:44;4.05;;;2.25;;
54805;SDS011;62866;55.776;37.496;2023-03-23T10:23:12;3.05;;;2.22;;
54805;SDS011;62866;55.776;37.496;2023-03-23T10:25:48;3.92;;;2.67;;
54805;SDS011;62866;55.776;37.496;2023-03-23T10:28:20;5.15;;;2.28;;
54805;SDS011;62866;55.776;37.496;2023-03-23T10:30:51;3.78;;;2.38;;
54805;SDS011;62866;55.776;37.496;2023-03-23T10:33:36;8.15;;;2.63;;
54805;SDS011;62866;55.776;37.496;2023-03-23T10:36:16;4.75;;;2.15;;
54805;SDS011;62866;55.776;37.496;2023-03-23T10:41:19;3.83;;;2.35;;
54805;SDS011;62866;55.776;37.496;2023-03-23T10:43:46;3.90;;;2.50;;
54805;SDS011;62866;55.776;37.496;2023-03-23T10:46:22;3.75;;;2.40;;
54805;SDS011;62866;55.776;37.496;2023-03-23T10:48:54;3.58;;;2.08;;
54805;SDS011;62866;55.776;37.496;2023-03-23T10:51:24;4.90;;;2.35;;
54805;SDS011;62866;55.776;37.496;2023-03-23T10:54:00;5.97;;;2.55;;
54805;SDS011;62866;55.776;37.496;2023-03-23T10:56:28;3.30;;;1.98;;
54805;SDS011;62866;55.776;37.496;2023-03-23T10:59:10;3.33;;;2.53;;
54805;SDS011;62866;55.776;37.496;2023-03-23T11:04:23;4.75;;;2.78;;
54805;SDS011;62866;55.776;37.496;2023-03-23T11:06:51;3.08;;;1.77;;
54805;SDS011;62866;55.776;37.496;2023-03-23T11:09:19;5.60;;;2.58;;
54805;SDS011;62866;55.776;37.496;2023-03-23T11:11:50;6.55;;;2.70;;
54805;SDS011;62866;55.776;37.496;2023-03-23T11:14:24;5.20;;;2.50;;
54805;SDS011;62866;55.776;37.496;2023-03-23T11:19:31;3.80;;;2.15;;
54805;SDS011;62866;55.776;37.496;2023-03-23T11:24:33;11.27;;;3.30;;
54805;SDS011;62866;55.776;37.496;2023-03-23T11:27:01;5.72;;;3.17;;
54805;SDS011;62866;55.776;37.496;2023-03-23T11:29:31;4.78;;;2.58;;
54805;SDS011;62866;55.776;37.496;2023-03-23T11:34:25;4.80;;;2.60;;
54805;SDS011;62866;55.776;37.496;2023-03-23T11:37:00;3.90;;;2.63;;
54805;SDS011;62866;55.776;37.496;2023-03-23T11:42:22;5.03;;;2.42;;
54805;SDS011;62866;55.776;37.496;2023-03-23T11:44:53;2.92;;;1.60;;
54805;SDS011;62866;55.776;37.496;2023-03-23T11:47:42;2.50;;;1.45;;
54805;SDS011;62866;55.776;37.496;2023-03-23T11:50:16;3.05;;;1.65;;
54805;SDS011;62866;55.776;37.496;2023-03-23T11:57:55;3.43;;;2.40;;
54805;SDS011;62866;55.776;37.496;2023-03-23T12:00:25;4.55;;;2.30;;
54805;SDS011;62866;55.776;37.496;2023-03-23T12:05:43;5.47;;;2.55;;
54805;SDS011;62866;55.776;37.496;2023-03-23T12:10:45;3.08;;;2.00;;
54805;SDS011;62866;55.776;37.496;2023-03-23T12:16:09;4.50;;;2.22;;
54805;SDS011;62866;55.776;37.496;2023-03-23T12:19:32;3.85;;;2.45;;
54805;SDS011;62866;55.776;37.496;2023-03-23T12:35:34;5.40;;;2.92;;
54805;SDS011;62866;55.776;37.496;2023-03-23T12:41:47;3.53;;;2.38;;
54805;SDS011;62866;55.776;37.496;2023-03-23T12:44:03;9.07;;;3.22;;
54805;SDS011;62866;55.776;37.496;2023-03-23T12:49:33;3.72;;;2.35;;
54805;SDS011;62866;55.776;37.496;2023-03-23T12:57:49;4.00;;;2.10;;
54805;SDS011;62866;55.776;37.496;2023-03-23T13:00:28;3.33;;;2.38;;
54805;SDS011;62866;55.776;37.496;2023-03-23T13:05:41;5.88;;;2.67;;
54805;SDS011;62866;55.776;37.496;2023-03-23T13:10:42;3.97;;;2.20;;
54805;SDS011;62866;55.776;37.496;2023-03-23T13:13:19;3.83;;;2.95;;
54805;SDS011;62866;55.776;37.496;2023-03-23T13:23:44;5.75;;;2.70;;
54805;SDS011;62866;55.776;37.496;2023-03-23T13:26:18;3.92;;;2.20;;
54805;SDS011;62866;55.776;37.496;2023-03-23T13:28:50;3.90;;;2.10;;
54805;SDS011;62866;55.776;37.496;2023-03-23T13:31:34;4.90;;;2.80;;
54805;SDS011;62866;55.776;37.496;2023-03-23T13:36:29;2.75;;;2.00;;
54805;SDS011;62866;55.776;37.496;2023-03-23T13:38:55;3.95;;;2.13;;
54805;SDS011;62866;55.776;37.496;2023-03-23T13:41:24;5.53;;;2.90;;
54805;SDS011;62866;55.776;37.496;2023-03-23T13:43:51;2.00;;;1.23;;
54805;SDS011;62866;55.776;37.496;2023-03-23T13:51:25;2.72;;;1.85;;
54805;SDS011;62866;55.776;37.496;2023-03-23T14:01:52;3.30;;;2.00;;
54805;SDS011;62866;55.776;37.496;2023-03-23T14:04:22;3.35;;;2.08;;
54805;SDS011;62866;55.776;37.496;2023-03-23T14:07:08;5.10;;;2.20;;
54805;SDS011;62866;55.776;37.496;2023-03-23T14:09:39;5.43;;;2.70;;
54805;SDS011;62866;55.776;37.496;2023-03-23T14:12:27;5.80;;;2.65;;
54805;SDS011;62866;55.776;37.496;2023-03-23T14:14:59;4.38;;;2.20;;
54805;SDS011;62866;55.776;37.496;2023-03-23T14:17:30;5.40;;;2.65;;
54805;SDS011;62866;55.776;37.496;2023-03-23T14:19:59;5.43;;;2.17;;
54805;SDS011;62866;55.776;37.496;2023-03-23T14:22:27;3.38;;;1.90;;
54805;SDS011;62866;55.776;37.496;2023-03-23T14:25:16;3.05;;;2.20;;
54805;SDS011;62866;55.776;37.496;2023-03-23T14:27:43;8.02;;;2.35;;
54805;SDS011;62866;55.776;37.496;2023-03-23T14:30:13;4.68;;;2.60;;
54805;SDS011;62866;55.776;37.496;2023-03-23T14:32:41;4.80;;;2.28;;
54805;SDS011;62866;55.776;37.496;2023-03-23T14:35:29;3.85;;;2.22;;
54805;SDS011;62866;55.776;37.496;2023-03-23T14:38:00;4.65;;;2.20;;
54805;SDS011;62866;55.776;37.496;2023-03-23T14:40:27;4.22;;;2.28;;
54805;SDS011;62866;55.776;37.496;2023-03-23T14:42:55;5.10;;;2.25;;
54805;SDS011;62866;55.776;37.496;2023-03-23T14:45:22;3.60;;;2.47;;
54805;SDS011;62866;55.776;37.496;2023-03-23T14:47:50;4.05;;;2.40;;
54805;SDS011;62866;55.776;37.496;2023-03-23T14:50:28;4.43;;;2.30;;
54805;SDS011;62866;55.776;37.496;2023-03-23T14:53:07;3.67;;;2.42;;
54805;SDS011;62866;55.776;37.496;2023-03-23T14:55:47;4.38;;;2.35;;
54805;SDS011;62866;55.776;37.496;2023-03-23T14:58:14;3.47;;;2.30;;
54805;SDS011;62866;55.776;37.496;2023-03-23T15:00:44;4.25;;;2.70;;
54805;SDS011;62866;55.776;37.496;2023-03-23T15:03:41;3.30;;;1.70;;
54805;SDS011;62866;55.776;37.496;2023-03-23T15:06:12;4.85;;;2.80;;
54805;SDS011;62866;55.776;37.496;2023-03-23T15:08:40;4.07;;;2.47;;
54805;SDS011;62866;55.776;37.496;2023-03-23T15:11:08;4.70;;;3.05;;
54805;SDS011;62866;55.776;37.496;2023-03-23T15:13:45;4.00;;;2.58;;
54805;SDS011;62866;55.776;37.496;2023-03-23T15:16:19;6.72;;;2.58;;
54805;SDS011;62866;55.776;37.496;2023-03-23T15:18:51;5.47;;;2.95;;
54805;SDS011;62866;55.776;37.496;2023-03-23T15:21:26;4.07;;;2.42;;
54805;SDS011;62866;55.776;37.496;2023-03-23T15:23:53;5.25;;;2.70;;
54805;SDS011;62866;55.776;37.496;2023-03-23T15:28:58;3.33;;;2.03;;
54805;SDS011;62866;55.776;37.496;2023-03-23T15:31:47;3.38;;;1.90;;
54805;SDS011;62866;55.776;37.496;2023-03-23T15:37:05;3.50;;;1.90;;
54805;SDS011;62866;55.776;37.496;2023-03-23T15:39:42;3.67;;;2.33;;
54805;SDS011;62866;55.776;37.496;2023-03-23T15:42:19;4.38;;;2.22;;
54805;SDS011;62866;55.776;37.496;2023-03-23T15:44:54;2.88;;;1.65;;
54805;SDS011;62866;55.776;37.496;2023-03-23T15:47:36;3.63;;;1.92;;
54805;SDS011;62866;55.776;37.496;2023-03-23T15:50:20;3.85;;;2.20;;
54805;SDS011;62866;55.776;37.496;2023-03-23T15:52:46;7.75;;;3.45;;
54805;SDS011;62866;55.776;37.496;2023-03-23T15:55:26;3.65;;;2.38;;
54805;SDS011;62866;55.776;37.496;2023-03-23T15:58:01;4.78;;;2.80;;
54805;SDS011;62866;55.776;37.496;2023-03-23T16:00:34;5.60;;;2.20;;
54805;SDS011;62866;55.776;37.496;2023-03-23T16:03:01;3.65;;;2.50;;
54805;SDS011;62866;55.776;37.496;2023-03-23T16:05:30;3.25;;;1.92;;
54805;SDS011;62866;55.776;37.496;2023-03-23T16:07:56;4.60;;;2.85;;
54805;SDS011;62866;55.776;37.496;2023-03-23T16:10:23;5.07;;;2.70;;
54805;SDS011;62866;55.776;37.496;2023-03-23T16:12:49;4.57;;;2.45;;
54805;SDS011;62866;55.776;37.496;2023-03-23T16:15:15;4.40;;;2.47;;
54805;SDS011;62866;55.776;37.496;2023-03-23T16:17:41;5.50;;;2.63;;
54805;SDS011;62866;55.776;37.496;2023-03-23T16:20:11;6.18;;;2.88;;
54805;SDS011;62866;55.776;37.496;2023-03-23T16:22:44;6.18;;;2.67;;
54805;SDS011;62866;55.776;37.496;2023-03-23T16:25:11;5.07;;;2.45;;
54805;SDS011;62866;55.776;37.496;2023-03-23T16:27:38;5.05;;;2.70;;
54805;SDS011;62866;55.776;37.496;2023-03-23T16:30:19;2.70;;;1.60;;
54805;SDS011;62866;55.776;37.496;2023-03-23T16:32:46;4.05;;;2.30;;
54805;SDS011;62866;55.776;37.496;2023-03-23T16:35:12;6.05;;;3.00;;
54805;SDS011;62866;55.776;37.496;2023-03-23T16:37:42;7.97;;;3.72;;
54805;SDS011;62866;55.776;37.496;2023-03-23T16:40:12;5.20;;;2.50;;
54805;SDS011;62866;55.776;37.496;2023-03-23T16:42:39;5.15;;;2.72;;
54805;SDS011;62866;55.776;37.496;2023-03-23T16:45:05;5.10;;;2.85;;
54805;SDS011;62866;55.776;37.496;2023-03-23T16:47:31;4.75;;;2.60;;
54805;SDS011;62866;55.776;37.496;2023-03-23T16:49:57;4.97;;;2.30;;
54805;SDS011;62866;55.776;37.496;2023-03-23T16:52:22;6.95;;;2.55;;
54805;SDS011;62866;55.776;37.496;2023-03-23T16:54:48;5.38;;;2.90;;
54805;SDS011;62866;55.776;37.496;2023-03-23T16:57:14;4.75;;;2.70;;
54805;SDS011;62866;55.776;37.496;2023-03-23T16:59:40;3.17;;;1.80;;
54805;SDS011;62866;55.776;37.496;2023-03-23T17:02:08;6.85;;;3.30;;